Time;durP1;ratioP1;P1;durP2;ratioP2;P2;SDS_P1;SDS_P2;PMS_P1;PMS_P2;Temp;Humidity;BMP_temperature;BMP_pressure;BME280_temperature;BME280_humidity;BME280_pressure;Samples;Min_cycle;Max_cycle;Signal;HPM_P1;HPM_P2
2024/01/07 00:01:56;;;;;;;18.15;11.32;;;-2.60;99.90;;;;;;5054299;28;20378;-77
2024/01/07 00:04:22;;;;;;;20.80;9.82;;;-2.60;99.90;;;;;;5054322;28;20444;-77
2024/01/07 00:06:47;;;;;;;39.33;21.83;;;-2.60;99.90;;;;;;5072285;28;20027;-78
2024/01/07 00:09:13;;;;;;;24.73;16.20;;;-2.60;99.90;;;;;;5054250;28;20489;-76
2024/01/07 00:11:39;;;;;;;15.32;8.90;;;-2.60;99.90;;;;;;5072313;28;20074;-76
2024/01/07 00:14:05;;;;;;;15.05;9.02;;;-2.70;99.90;;;;;;5058021;28;20012;-80
2024/01/07 00:16:31;;;;;;;13.05;6.55;;;-2.70;99.90;;;;;;5076491;28;20559;-79
2024/01/07 00:18:57;;;;;;;15.45;9.00;;;-2.70;99.90;;;;;;5076151;28;20024;-78
2024/01/07 00:21:23;;;;;;;13.80;9.43;;;-2.70;99.90;;;;;;5076439;28;20389;-77
2024/01/07 00:23:48;;;;;;;21.95;10.20;;;-2.70;99.90;;;;;;5057766;28;20031;-77
2024/01/07 00:26:14;;;;;;;18.75;9.73;;;-2.70;99.90;;;;;;5076493;28;20024;-78
2024/01/07 00:28:40;;;;;;;13.52;7.90;;;-2.70;99.90;;;;;;5076140;28;20025;-77
2024/01/07 00:31:08;;;;;;;14.25;9.20;;;-2.80;99.90;;;;;;5058133;28;20079;-77
2024/01/07 00:33:35;;;;;;;16.17;9.45;;;-2.70;99.90;;;;;;5075762;28;20048;-77
2024/01/07 00:36:01;;;;;;;12.85;7.07;;;-2.80;99.90;;;;;;5058075;28;20386;-77
2024/01/07 00:38:27;;;;;;;18.42;8.70;;;-2.80;99.90;;;;;;5075899;28;20039;-78
2024/01/07 00:40:52;;;;;;;18.50;10.20;;;-2.80;99.90;;;;;;5076038;28;20024;-77
2024/01/07 00:43:18;;;;;;;16.33;8.85;;;-2.80;99.90;;;;;;5057750;28;20016;-77
2024/01/07 00:45:44;;;;;;;18.90;11.77;;;-2.80;99.90;;;;;;5057959;28;20039;-77
2024/01/07 00:48:10;;;;;;;11.82;6.72;;;-2.90;99.90;;;;;;5075354;28;20016;-76
2024/01/07 00:50:35;;;;;;;11.63;5.80;;;-3.00;99.90;;;;;;5075285;28;20410;-77
2024/01/07 00:53:01;;;;;;;9.43;5.80;;;-3.00;99.90;;;;;;5057650;28;20019;-77
2024/01/07 00:55:26;;;;;;;13.90;7.13;;;-3.10;99.90;;;;;;5075768;28;20035;-77
2024/01/07 00:57:52;;;;;;;12.10;7.65;;;-3.10;99.90;;;;;;5075358;28;20020;-76
2024/01/07 01:00:18;;;;;;;13.10;7.70;;;-3.10;99.90;;;;;;5075643;28;20024;-77
2024/01/07 01:02:45;;;;;;;12.18;6.75;;;-3.10;99.90;;;;;;5075314;28;20027;-77
2024/01/07 01:05:11;;;;;;;10.98;5.13;;;-3.10;99.90;;;;;;5057445;28;20025;-77
2024/01/07 01:07:37;;;;;;;10.73;6.65;;;-3.10;99.90;;;;;;5075154;28;20123;-77
2024/01/07 01:10:03;;;;;;;8.75;5.50;;;-3.20;99.90;;;;;;5075521;28;20415;-77
2024/01/07 01:12:28;;;;;;;11.77;6.32;;;-3.20;99.90;;;;;;5057094;28;20389;-77
2024/01/07 01:14:54;;;;;;;7.45;4.65;;;-3.20;99.90;;;;;;5075451;28;20103;-77
2024/01/07 01:17:20;;;;;;;12.45;7.25;;;-3.20;99.90;;;;;;5057296;28;20539;-77
2024/01/07 01:19:45;;;;;;;12.25;6.50;;;-3.20;99.90;;;;;;5057030;28;20021;-77
2024/01/07 01:22:11;;;;;;;7.13;5.32;;;-3.20;99.90;;;;;;5074952;28;20039;-77
2024/01/07 01:24:37;;;;;;;12.40;7.18;;;-3.20;99.90;;;;;;5074118;28;20020;-77
2024/01/07 01:27:03;;;;;;;9.63;6.28;;;-3.20;99.90;;;;;;5056855;28;20027;-77
2024/01/07 01:29:28;;;;;;;10.57;6.72;;;-3.20;99.90;;;;;;5057323;28;20032;-77
2024/01/07 01:31:54;;;;;;;8.23;5.30;;;-3.20;99.90;;;;;;5074590;28;20177;-77
2024/01/07 01:34:19;;;;;;;10.32;6.07;;;-3.30;99.90;;;;;;5057113;28;20390;-77
2024/01/07 01:36:45;;;;;;;15.50;7.90;;;-3.30;99.90;;;;;;5074619;28;20027;-76
2024/01/07 01:39:11;;;;;;;9.00;4.47;;;-3.30;99.90;;;;;;5075101;28;20024;-77
2024/01/07 01:41:36;;;;;;;9.68;4.43;;;-3.40;99.90;;;;;;5056906;28;20040;-77
2024/01/07 01:44:02;;;;;;;10.73;5.68;;;-3.40;99.90;;;;;;5074677;28;20074;-77
2024/01/07 01:46:29;;;;;;;12.70;7.22;;;-3.40;99.90;;;;;;5056504;28;20378;-77
2024/01/07 01:48:55;;;;;;;5.47;3.60;;;-3.40;99.90;;;;;;5074674;28;20029;-77
2024/01/07 01:51:21;;;;;;;10.20;5.60;;;-3.50;99.90;;;;;;5074571;28;20048;-79
2024/01/07 01:53:49;;;;;;;7.07;4.97;;;-3.50;99.90;;;;;;5056593;28;20470;-79
2024/01/07 01:56:18;;;;;;;9.73;5.68;;;-3.50;99.90;;;;;;5074513;28;20023;-79
2024/01/07 01:58:44;;;;;;;14.55;6.25;;;-3.50;99.90;;;;;;5074399;28;20478;-79
2024/01/07 02:01:10;;;;;;;9.70;5.72;;;-3.50;99.90;;;;;;5056244;28;20042;-79
2024/01/07 02:03:36;;;;;;;12.32;6.88;;;-3.50;99.90;;;;;;5074034;28;20025;-79
2024/01/07 02:06:02;;;;;;;15.45;7.97;;;-3.60;99.90;;;;;;5074110;28;20017;-79
2024/01/07 02:08:28;;;;;;;8.38;6.22;;;-3.60;99.90;;;;;;5074573;28;20428;-79
2024/01/07 02:10:53;;;;;;;22.52;6.70;;;-3.60;99.90;;;;;;5055788;28;20082;-79
2024/01/07 02:13:19;;;;;;;12.20;5.45;;;-3.60;99.90;;;;;;5074077;28;20028;-79
2024/01/07 02:15:45;;;;;;;9.75;6.80;;;-3.60;99.90;;;;;;5073716;28;20490;-79
2024/01/07 02:18:10;;;;;;;10.65;6.65;;;-3.50;99.90;;;;;;5074004;28;20481;-79
2024/01/07 02:20:36;;;;;;;11.18;5.68;;;-3.60;99.90;;;;;;5073945;28;20025;-78
2024/01/07 02:23:03;;;;;;;9.82;6.93;;;-3.60;99.90;;;;;;5054909;28;20028;-78
2024/01/07 02:25:28;;;;;;;8.95;5.50;;;-3.60;99.90;;;;;;5055844;28;20386;-79
2024/01/07 02:27:54;;;;;;;8.48;4.88;;;-3.60;99.90;;;;;;5073812;28;20028;-79
2024/01/07 02:30:20;;;;;;;7.13;5.40;;;-3.60;99.90;;;;;;5073750;28;20476;-76
2024/01/07 02:32:45;;;;;;;7.78;5.00;;;-3.70;99.90;;;;;;5073097;28;20055;-80
2024/01/07 02:35:11;;;;;;;9.55;6.20;;;-3.70;99.90;;;;;;5055285;28;20020;-77
2024/01/07 02:37:37;;;;;;;10.43;5.70;;;-3.70;99.90;;;;;;5073816;28;20478;-77
2024/01/07 02:40:03;;;;;;;7.93;4.75;;;-3.60;99.90;;;;;;5055558;28;20397;-77
2024/01/07 02:42:28;;;;;;;10.70;6.07;;;-3.70;99.90;;;;;;5055952;28;20017;-77
2024/01/07 02:44:54;;;;;;;8.95;5.45;;;-3.70;99.90;;;;;;5055365;28;20542;-77
2024/01/07 02:47:20;;;;;;;6.32;5.10;;;-3.70;99.90;;;;;;5073605;28;20021;-77
2024/01/07 02:49:45;;;;;;;7.35;4.90;;;-3.80;99.90;;;;;;5055268;28;20385;-77
2024/01/07 02:52:11;;;;;;;8.07;4.72;;;-3.80;99.90;;;;;;5055229;28;20025;-77
2024/01/07 02:54:37;;;;;;;9.68;3.97;;;-3.80;99.90;;;;;;5073382;28;20029;-77
2024/01/07 02:57:03;;;;;;;8.85;4.68;;;-3.80;99.90;;;;;;5073219;28;20488;-77
2024/01/07 02:59:28;;;;;;;10.63;5.30;;;-3.80;99.90;;;;;;5055366;28;20390;-77
2024/01/07 03:01:54;;;;;;;4.63;4.18;;;-3.80;99.90;;;;;;5055587;28;20032;-77
2024/01/07 03:04:19;;;;;;;6.20;4.38;;;-3.90;99.90;;;;;;5073263;28;20021;-77
2024/01/07 03:06:45;;;;;;;7.78;5.72;;;-4.00;99.90;;;;;;5057307;28;20504;-77
2024/01/07 03:09:11;;;;;;;6.60;3.88;;;-4.00;99.90;;;;;;5054998;28;20016;-77
2024/01/07 03:11:43;;;;;;;4.60;3.58;;;-4.00;99.90;;;;;;5073136;28;20496;-76
2024/01/07 03:14:10;;;;;;;3.55;3.08;;;-4.00;99.90;;;;;;5072918;28;20390;-77
2024/01/07 03:16:35;;;;;;;4.97;2.80;;;-4.00;99.90;;;;;;5071083;28;20032;-77
2024/01/07 03:19:02;;;;;;;8.65;5.63;;;-4.10;99.90;;;;;;5066714;28;20047;-77
2024/01/07 03:21:28;;;;;;;7.40;4.25;;;-4.00;99.90;;;;;;5055158;28;20111;-77
2024/01/07 03:23:54;;;;;;;8.75;4.95;;;-4.10;99.90;;;;;;5067086;28;20486;-77
2024/01/07 03:26:20;;;;;;;6.05;4.30;;;-4.10;99.90;;;;;;5054805;28;20021;-77
2024/01/07 03:28:46;;;;;;;9.00;5.88;;;-4.10;99.90;;;;;;5054742;28;20351;-77
2024/01/07 03:31:16;;;;;;;7.72;4.70;;;-4.00;99.90;;;;;;5072598;28;20048;-77
2024/01/07 03:33:42;;;;;;;7.63;4.68;;;-4.10;99.90;;;;;;5072197;28;20048;-78
2024/01/07 03:36:09;;;;;;;8.45;4.40;;;-4.10;99.90;;;;;;5071757;28;20385;-77
2024/01/07 03:38:35;;;;;;;6.95;4.90;;;-4.10;99.90;;;;;;5051332;28;20025;-77
2024/01/07 03:41:01;;;;;;;8.50;4.85;;;-4.20;99.90;;;;;;5072473;28;20044;-77
2024/01/07 03:43:27;;;;;;;7.10;3.70;;;-4.20;99.90;;;;;;5054526;28;20044;-76
2024/01/07 03:45:53;;;;;;;9.15;4.72;;;-4.20;99.90;;;;;;5072150;28;20028;-77
2024/01/07 03:48:19;;;;;;;6.78;4.50;;;-4.10;99.90;;;;;;5071447;28;20021;-77
2024/01/07 03:50:45;;;;;;;6.40;5.03;;;-4.20;99.90;;;;;;5054420;28;20131;-77
2024/01/07 03:53:11;;;;;;;7.80;4.65;;;-4.20;99.90;;;;;;5072353;28;20108;-77
2024/01/07 03:55:36;;;;;;;7.80;4.70;;;-4.20;99.90;;;;;;5072268;28;20024;-76
2024/01/07 03:58:03;;;;;;;8.68;4.95;;;-4.20;99.90;;;;;;5072335;28;20027;-77
2024/01/07 04:00:28;;;;;;;10.75;5.72;;;-4.30;99.90;;;;;;5072122;28;20009;-77
2024/01/07 04:02:54;;;;;;;9.75;3.97;;;-4.20;99.90;;;;;;5067141;28;20036;-76
2024/01/07 04:05:20;;;;;;;7.80;5.15;;;-4.30;99.90;;;;;;5072295;28;20031;-77
2024/01/07 04:07:45;;;;;;;5.55;4.20;;;-4.20;99.90;;;;;;5042566;28;20025;-77
2024/01/07 04:10:11;;;;;;;11.68;5.75;;;-4.30;99.90;;;;;;5054339;28;20025;-77
2024/01/07 04:12:37;;;;;;;7.85;5.15;;;-4.30;99.90;;;;;;5054449;28;20013;-78
2024/01/07 04:15:03;;;;;;;7.65;4.65;;;-4.30;99.90;;;;;;5072248;28;20017;-77
2024/01/07 04:17:29;;;;;;;6.20;4.35;;;-4.30;99.90;;;;;;5053851;28;20392;-77
2024/01/07 04:19:55;;;;;;;8.98;5.22;;;-4.30;99.90;;;;;;5054432;28;20029;-77
2024/01/07 04:22:21;;;;;;;10.15;5.13;;;-4.30;99.90;;;;;;5072159;28;20029;-77
2024/01/07 04:24:46;;;;;;;8.52;4.65;;;-4.30;99.90;;;;;;5071773;28;20092;-76
2024/01/07 04:27:12;;;;;;;8.77;5.25;;;-4.30;99.90;;;;;;5054142;28;20031;-77
2024/01/07 04:29:38;;;;;;;8.93;4.78;;;-4.30;99.90;;;;;;5054165;28;20026;-77
2024/01/07 04:32:03;;;;;;;8.55;5.13;;;-4.40;99.90;;;;;;5054007;28;20478;-77
2024/01/07 04:34:29;;;;;;;4.60;4.15;;;-4.40;99.90;;;;;;5042479;28;20104;-78
2024/01/07 04:36:55;;;;;;;8.05;5.03;;;-4.40;99.90;;;;;;5072163;28;20093;-77
2024/01/07 04:39:20;;;;;;;4.95;3.67;;;-4.40;99.90;;;;;;5071893;28;20066;-77
2024/01/07 04:41:46;;;;;;;11.25;4.07;;;-4.50;99.90;;;;;;5054268;28;20111;-77
2024/01/07 04:44:13;;;;;;;9.45;4.55;;;-4.50;99.90;;;;;;5054032;28;20048;-77
2024/01/07 04:46:39;;;;;;;4.72;3.47;;;-4.50;99.90;;;;;;5061647;28;20025;-78
2024/01/07 04:49:05;;;;;;;5.78;4.20;;;-4.50;99.90;;;;;;5053043;28;20098;-78
2024/01/07 04:51:32;;;;;;;6.43;3.33;;;-4.50;99.90;;;;;;5072083;28;20063;-77
2024/01/07 04:53:58;;;;;;;8.82;5.53;;;-4.50;99.90;;;;;;5072061;28;20116;-77
2024/01/07 04:56:23;;;;;;;6.60;4.97;;;-4.50;99.90;;;;;;5072307;28;20095;-77
2024/01/07 04:58:49;;;;;;;3.58;3.05;;;-4.50;99.90;;;;;;5073056;28;20032;-77
2024/01/07 05:01:15;;;;;;;5.43;3.80;;;-4.50;99.90;;;;;;5057884;28;20400;-77
2024/01/07 05:03:41;;;;;;;7.35;3.42;;;-4.60;99.90;;;;;;5075371;28;20025;-77
2024/01/07 05:06:09;;;;;;;7.25;3.47;;;-4.60;99.90;;;;;;5075360;28;20012;-77
2024/01/07 05:08:37;;;;;;;7.63;4.30;;;-4.60;99.90;;;;;;5057536;28;20417;-77
2024/01/07 05:11:03;;;;;;;5.50;4.13;;;-4.60;99.90;;;;;;5075180;28;20025;-77
2024/01/07 05:13:29;;;;;;;7.32;4.35;;;-4.60;99.90;;;;;;5057487;28;20052;-77
2024/01/07 05:15:54;;;;;;;5.53;3.50;;;-4.60;99.90;;;;;;5053082;28;20056;-77
2024/01/07 05:18:22;;;;;;;6.70;4.75;;;-4.70;99.90;;;;;;5057082;28;20035;-78
2024/01/07 05:20:47;;;;;;;5.32;3.65;;;-4.60;99.90;;;;;;5075227;28;20016;-78
2024/01/07 05:23:13;;;;;;;7.22;4.75;;;-4.70;99.90;;;;;;5075021;28;20016;-78
2024/01/07 05:25:39;;;;;;;5.97;4.38;;;-4.70;99.90;;;;;;5070124;28;20096;-78
2024/01/07 05:28:04;;;;;;;4.90;3.78;;;-4.70;99.90;;;;;;5061686;28;20027;-78
2024/01/07 05:30:30;;;;;;;5.47;4.47;;;-4.70;99.90;;;;;;5074914;28;20037;-78
2024/01/07 05:32:56;;;;;;;5.70;4.70;;;-4.70;99.90;;;;;;5056624;28;20238;-77
2024/01/07 05:35:21;;;;;;;8.70;4.68;;;-4.70;99.90;;;;;;5075142;28;20039;-78
2024/01/07 05:37:47;;;;;;;9.77;4.05;;;-4.70;99.90;;;;;;5068482;28;20070;-78
2024/01/07 05:40:13;;;;;;;5.22;3.63;;;-4.70;99.90;;;;;;5075000;28;20035;-77
2024/01/07 05:42:38;;;;;;;8.10;4.50;;;-4.70;99.90;;;;;;5074639;28;20025;-77
2024/01/07 05:45:04;;;;;;;7.72;4.38;;;-4.60;99.90;;;;;;5056874;28;20031;-77
2024/01/07 05:47:30;;;;;;;4.45;3.47;;;-4.60;99.90;;;;;;5056779;28;20116;-78
2024/01/07 05:49:56;;;;;;;8.63;4.57;;;-4.70;99.90;;;;;;5053539;28;20466;-77
2024/01/07 05:52:22;;;;;;;9.60;4.60;;;-4.60;99.90;;;;;;5056903;28;20030;-77
2024/01/07 05:54:48;;;;;;;6.72;4.20;;;-4.60;99.90;;;;;;5056383;28;20032;-77
2024/01/07 05:57:13;;;;;;;9.40;5.75;;;-4.70;99.90;;;;;;5074756;28;20021;-78
2024/01/07 05:59:39;;;;;;;9.38;4.97;;;-4.60;99.90;;;;;;5051821;28;20025;-78
2024/01/07 06:02:05;;;;;;;7.35;5.00;;;-4.70;99.90;;;;;;5074475;28;20017;-77
2024/01/07 06:04:30;;;;;;;6.70;5.07;;;-4.70;99.90;;;;;;5074321;28;20027;-77
2024/01/07 06:06:56;;;;;;;13.45;6.10;;;-4.60;99.90;;;;;;5056448;28;20424;-76
2024/01/07 06:09:22;;;;;;;13.65;7.28;;;-4.70;99.90;;;;;;5074424;28;20512;-77
2024/01/07 06:11:47;;;;;;;9.25;5.93;;;-4.70;99.90;;;;;;5073433;28;20028;-77
2024/01/07 06:14:13;;;;;;;14.00;7.22;;;-4.70;99.90;;;;;;5074114;28;20029;-77
2024/01/07 06:16:39;;;;;;;10.63;5.22;;;-4.70;99.90;;;;;;5056127;28;20021;-77
2024/01/07 06:19:05;;;;;;;10.95;6.32;;;-4.70;99.90;;;;;;5056091;28;20032;-77
2024/01/07 06:21:30;;;;;;;6.25;3.95;;;-4.70;99.90;;;;;;5048999;28;20394;-77
2024/01/07 06:23:56;;;;;;;12.73;5.03;;;-4.70;99.90;;;;;;5056089;28;20020;-77
2024/01/07 06:26:21;;;;;;;8.73;5.22;;;-4.70;99.90;;;;;;5055971;28;20385;-77
2024/01/07 06:28:47;;;;;;;8.45;4.00;;;-4.70;99.90;;;;;;5045437;28;20031;-77
2024/01/07 06:31:13;;;;;;;11.93;6.05;;;-4.70;99.90;;;;;;5055818;28;20071;-77
2024/01/07 06:33:38;;;;;;;14.63;6.43;;;-4.80;99.90;;;;;;5055873;28;20067;-77
2024/01/07 06:36:04;;;;;;;3.83;2.97;;;-4.80;99.90;;;;;;5055783;28;20062;-78
2024/01/07 06:38:30;;;;;;;7.47;5.13;;;-4.80;99.90;;;;;;5073976;28;20083;-77
2024/01/07 06:41:00;;;;;;;12.20;5.18;;;-4.80;99.90;;;;;;5073361;28;20055;-77
2024/01/07 06:43:25;;;;;;;11.75;6.18;;;-4.80;99.90;;;;;;5054545;28;20089;-77
2024/01/07 06:45:51;;;;;;;8.63;5.80;;;-4.80;99.90;;;;;;5071746;28;20477;-77
2024/01/07 06:48:17;;;;;;;13.75;6.95;;;-4.90;99.90;;;;;;5073360;28;20024;-77
2024/01/07 06:50:43;;;;;;;7.32;5.40;;;-4.90;99.90;;;;;;5055301;28;20044;-77
2024/01/07 06:53:09;;;;;;;5.63;3.47;;;-4.90;99.90;;;;;;5054938;28;20021;-77
2024/01/07 06:55:35;;;;;;;7.93;4.07;;;-4.90;99.90;;;;;;5054796;28;20101;-77
2024/01/07 06:58:00;;;;;;;6.22;4.55;;;-5.00;99.90;;;;;;5049069;28;20008;-77
2024/01/07 07:00:26;;;;;;;5.75;5.05;;;-5.00;99.90;;;;;;5073391;28;20024;-77
2024/01/07 07:02:52;;;;;;;12.15;6.45;;;-5.00;99.90;;;;;;5055179;28;20013;-77
2024/01/07 07:05:17;;;;;;;11.02;5.18;;;-5.00;99.90;;;;;;5055238;28;20398;-77
2024/01/07 07:07:43;;;;;;;15.98;8.02;;;-5.00;99.90;;;;;;5073023;28;20025;-77
2024/01/07 07:10:08;;;;;;;13.85;6.82;;;-5.00;99.90;;;;;;5054832;28;20031;-77
2024/01/07 07:12:34;;;;;;;9.63;6.10;;;-5.00;99.90;;;;;;5072965;28;20031;-77
2024/01/07 07:15:00;;;;;;;9.93;5.57;;;-5.00;99.90;;;;;;5072687;28;20020;-77
2024/01/07 07:17:25;;;;;;;18.98;8.80;;;-5.00;99.90;;;;;;5054769;28;20107;-76
2024/01/07 07:19:51;;;;;;;16.23;8.75;;;-5.00;99.90;;;;;;5054194;28;20464;-77
2024/01/07 07:22:17;;;;;;;22.58;7.50;;;-5.00;99.90;;;;;;5069945;28;20170;-77
2024/01/07 07:24:43;;;;;;;19.25;9.48;;;-5.00;99.90;;;;;;5054313;28;20098;-77
2024/01/07 07:27:08;;;;;;;8.52;5.22;;;-5.00;99.90;;;;;;5072520;28;20478;-77
2024/01/07 07:29:34;;;;;;;12.93;7.25;;;-5.00;99.90;;;;;;5053055;28;20549;-77
2024/01/07 07:32:00;;;;;;;13.27;5.28;;;-5.00;99.90;;;;;;5072366;28;20576;-77
2024/01/07 07:34:25;;;;;;;6.63;4.38;;;-5.10;99.90;;;;;;5072069;28;20035;-77
2024/01/07 07:36:51;;;;;;;6.25;4.20;;;-5.10;99.90;;;;;;5053632;28;20444;-76
2024/01/07 07:39:17;;;;;;;10.10;5.63;;;-5.10;99.90;;;;;;5071734;28;20032;-76
2024/01/07 07:41:43;;;;;;;5.47;4.00;;;-5.10;99.90;;;;;;5071767;28;20036;-77
2024/01/07 07:44:08;;;;;;;9.27;4.93;;;-5.10;99.90;;;;;;5054119;28;20021;-77
2024/01/07 07:46:34;;;;;;;10.13;4.78;;;-5.10;99.90;;;;;;5054344;28;20051;-78
2024/01/07 07:49:00;;;;;;;7.72;4.40;;;-5.20;99.90;;;;;;5047876;28;20036;-77
2024/01/07 07:51:27;;;;;;;4.93;4.15;;;-5.10;99.90;;;;;;5050880;28;20036;-77
2024/01/07 07:53:53;;;;;;;10.57;6.40;;;-5.20;99.90;;;;;;5054347;28;20035;-77
2024/01/07 07:56:18;;;;;;;9.13;5.38;;;-5.10;99.90;;;;;;5070899;28;20494;-77
2024/01/07 07:58:44;;;;;;;10.77;6.35;;;-5.10;99.90;;;;;;5072346;28;20088;-78
2024/01/07 08:01:09;;;;;;;15.55;8.15;;;-5.10;99.90;;;;;;5072322;28;20471;-77
2024/01/07 08:03:36;;;;;;;9.40;6.10;;;-5.10;99.90;;;;;;5071867;28;20031;-78
2024/01/07 08:06:02;;;;;;;18.85;9.35;;;-5.00;99.90;;;;;;5071779;28;20021;-77
2024/01/07 08:08:27;;;;;;;11.13;6.22;;;-5.00;99.90;;;;;;5071784;28;20090;-79
2024/01/07 08:10:54;;;;;;;6.20;4.10;;;-5.00;99.90;;;;;;5043801;28;20037;-78
2024/01/07 08:13:19;;;;;;;8.40;5.20;;;-5.10;99.90;;;;;;5054253;28;20037;-78
2024/01/07 08:15:45;;;;;;;14.77;7.78;;;-5.10;99.90;;;;;;5070025;28;20502;-77
2024/01/07 08:18:11;;;;;;;5.13;3.97;;;-5.10;99.90;;;;;;5068454;28;20035;-77
2024/01/07 08:20:36;;;;;;;11.57;5.43;;;-5.20;99.90;;;;;;5071817;28;20390;-77
2024/01/07 08:23:02;;;;;;;6.80;5.22;;;-5.10;99.90;;;;;;5070241;28;20024;-76
2024/01/07 08:25:27;;;;;;;15.73;8.80;;;-5.00;99.90;;;;;;5070745;28;20029;-77
2024/01/07 08:27:53;;;;;;;8.27;5.20;;;-4.90;99.90;;;;;;5072154;28;20415;-75
2024/01/07 08:30:19;;;;;;;5.25;4.30;;;-4.90;99.90;;;;;;5053130;28;20024;-74
2024/01/07 08:32:44;;;;;;;17.05;7.30;;;-5.00;99.90;;;;;;5054048;28;20045;-74
2024/01/07 08:35:11;;;;;;;11.18;7.75;;;-4.90;99.90;;;;;;5074859;28;20024;-75
2024/01/07 08:37:36;;;;;;;13.93;6.65;;;-4.90;99.90;;;;;;5057407;28;20017;-74
2024/01/07 08:40:02;;;;;;;8.40;5.57;;;-4.80;99.90;;;;;;5075217;28;20039;-74
2024/01/07 08:42:30;;;;;;;9.00;5.32;;;-4.80;99.90;;;;;;5075782;28;20032;-76
2024/01/07 08:44:56;;;;;;;8.27;5.30;;;-4.80;99.90;;;;;;5056128;28;20024;-76
2024/01/07 08:47:22;;;;;;;18.35;8.65;;;-4.90;99.90;;;;;;5057804;28;20020;-77
2024/01/07 08:49:47;;;;;;;14.68;6.72;;;-4.70;99.90;;;;;;5057249;28;20078;-77
2024/01/07 08:52:13;;;;;;;15.23;8.70;;;-4.90;99.90;;;;;;5057365;28;20486;-77
2024/01/07 08:54:38;;;;;;;14.57;6.75;;;-4.80;99.90;;;;;;5075560;28;20025;-77
2024/01/07 08:57:04;;;;;;;11.80;5.63;;;-4.80;99.90;;;;;;5075317;28;20020;-77
2024/01/07 08:59:31;;;;;;;18.55;8.88;;;-4.80;99.90;;;;;;5075662;28;20421;-77
2024/01/07 09:01:56;;;;;;;17.73;8.85;;;-4.70;99.90;;;;;;5057188;28;20013;-77
2024/01/07 09:04:22;;;;;;;16.13;7.43;;;-4.80;99.90;;;;;;5075510;28;20509;-77
2024/01/07 09:06:48;;;;;;;12.63;6.75;;;-4.80;99.90;;;;;;5074595;28;20031;-77
2024/01/07 09:09:13;;;;;;;19.90;8.38;;;-4.90;99.90;;;;;;5075110;28;20035;-76
2024/01/07 09:11:39;;;;;;;13.63;5.28;;;-4.80;99.90;;;;;;5075045;28;20029;-76
2024/01/07 09:14:05;;;;;;;15.52;6.28;;;-4.90;99.90;;;;;;5057182;28;20029;-77
2024/01/07 09:16:30;;;;;;;12.20;6.70;;;-4.90;99.90;;;;;;5057150;28;20051;-76
2024/01/07 09:18:56;;;;;;;9.57;5.45;;;-4.90;99.90;;;;;;5074648;28;20021;-77
2024/01/07 09:21:23;;;;;;;19.23;7.05;;;-4.90;99.90;;;;;;5075099;28;20406;-77
2024/01/07 09:23:48;;;;;;;12.75;6.70;;;-4.70;99.90;;;;;;5056893;28;20024;-77
2024/01/07 09:26:14;;;;;;;12.00;6.32;;;-4.80;99.90;;;;;;5056727;28;20024;-77
2024/01/07 09:28:40;;;;;;;9.88;5.47;;;-4.80;99.90;;;;;;5074893;28;20023;-77
2024/01/07 09:31:07;;;;;;;6.90;3.70;;;-4.70;99.90;;;;;;5056828;28;20032;-77
2024/01/07 09:33:32;;;;;;;9.50;6.15;;;-4.70;99.90;;;;;;5056672;28;20486;-78
2024/01/07 09:35:58;;;;;;;12.40;5.88;;;-4.60;99.90;;;;;;5074688;28;20021;-78
2024/01/07 09:38:25;;;;;;;8.82;5.68;;;-4.60;99.90;;;;;;5074928;28;20035;-78
2024/01/07 09:40:51;;;;;;;13.45;5.68;;;-4.70;99.90;;;;;;5056364;28;20500;-77
2024/01/07 09:43:17;;;;;;;16.58;6.47;;;-4.70;99.90;;;;;;5074356;28;20021;-78
2024/01/07 09:45:47;;;;;;;16.05;7.75;;;-4.70;99.90;;;;;;5055476;28;20028;-78
2024/01/07 09:48:14;;;;;;;15.77;8.13;;;-4.60;99.90;;;;;;5056625;28;20024;-78
2024/01/07 09:50:40;;;;;;;11.43;6.57;;;-4.60;99.90;;;;;;5056433;28;20040;-76
2024/01/07 09:53:07;;;;;;;14.02;7.28;;;-4.70;99.90;;;;;;5074086;28;20012;-77
2024/01/07 09:55:40;;;;;;;12.82;7.30;;;-4.60;99.90;;;;;;5056210;28;20067;-77
2024/01/07 09:58:06;;;;;;;14.80;8.43;;;-4.50;99.90;;;;;;5074503;28;20024;-79
2024/01/07 10:00:32;;;;;;;12.73;7.40;;;-4.40;99.90;;;;;;5056347;28;20020;-78
2024/01/07 10:02:58;;;;;;;12.88;7.35;;;-4.30;99.90;;;;;;5073993;28;20074;-78
2024/01/07 10:05:24;;;;;;;15.27;7.50;;;-4.40;99.90;;;;;;5074256;28;20103;-78
2024/01/07 10:07:49;;;;;;;18.60;9.02;;;-4.30;99.90;;;;;;5074193;28;20035;-78
2024/01/07 10:10:17;;;;;;;13.27;6.40;;;-4.20;99.90;;;;;;5074105;28;20029;-77
2024/01/07 10:12:46;;;;;;;7.10;3.92;;;-4.20;99.90;;;;;;5055270;28;20021;-78
2024/01/07 10:15:12;;;;;;;11.52;6.70;;;-4.40;99.90;;;;;;5074120;28;20021;-78
2024/01/07 10:17:39;;;;;;;11.43;6.65;;;-4.30;99.90;;;;;;5073862;28;20028;-78
2024/01/07 10:20:09;;;;;;;10.35;5.90;;;-4.30;99.90;;;;;;5056002;28;20052;-78
2024/01/07 10:22:36;;;;;;;16.10;8.25;;;-4.40;99.90;;;;;;5073356;28;20032;-78
2024/01/07 10:25:02;;;;;;;16.35;8.05;;;-4.20;99.90;;;;;;5073607;28;20508;-77
2024/01/07 10:27:28;;;;;;;11.88;6.57;;;-4.20;99.90;;;;;;5055457;28;20134;-76
2024/01/07 10:29:55;;;;;;;9.10;6.45;;;-4.20;99.90;;;;;;5073887;28;20035;-76
2024/01/07 10:32:20;;;;;;;10.88;6.95;;;-4.30;99.90;;;;;;5073384;28;20048;-77
2024/01/07 10:34:49;;;;;;;9.50;5.32;;;-4.30;99.90;;;;;;5055406;28;20543;-77
2024/01/07 10:37:15;;;;;;;12.30;6.63;;;-4.20;99.90;;;;;;5055585;28;20025;-76
2024/01/07 10:39:41;;;;;;;13.50;5.88;;;-4.20;99.90;;;;;;5073568;28;20100;-76
2024/01/07 10:42:09;;;;;;;7.97;4.35;;;-4.40;99.90;;;;;;5055385;28;20017;-76
2024/01/07 10:44:35;;;;;;;11.45;6.63;;;-4.50;99.90;;;;;;5055408;28;20012;-76
2024/01/07 10:47:06;;;;;;;15.55;7.07;;;-4.40;99.90;;;;;;5073066;28;20027;-76
2024/01/07 10:49:32;;;;;;;10.07;5.90;;;-4.50;99.90;;;;;;5073401;28;20028;-76
2024/01/07 10:52:08;;;;;;;14.23;6.60;;;-4.30;99.90;;;;;;5054817;28;20036;-76
2024/01/07 10:54:35;;;;;;;15.13;5.55;;;-4.30;99.90;;;;;;5064907;28;20082;-77
2024/01/07 10:57:31;;;;;;;15.52;7.80;;;-4.30;99.90;;;;;;5054199;28;20055;-77
2024/01/07 10:59:58;;;;;;;10.30;7.05;;;-4.30;99.90;;;;;;5051062;28;20077;-76
2024/01/07 11:02:25;;;;;;;12.73;7.63;;;-4.40;99.90;;;;;;5073149;28;20024;-76
2024/01/07 11:05:09;;;;;;;11.15;6.55;;;-4.30;99.90;;;;;;5060359;28;20557;-76
2024/01/07 11:07:44;;;;;;;15.75;8.90;;;-4.40;99.90;;;;;;5061919;28;20063;-76
2024/01/07 11:10:31;;;;;;;15.23;8.63;;;-4.40;99.90;;;;;;5072595;28;20108;-76
2024/01/07 11:13:00;;;;;;;11.80;7.53;;;-4.40;99.90;;;;;;5071861;28;20024;-76
2024/01/07 11:15:49;;;;;;;12.80;5.30;;;-4.50;99.90;;;;;;5053433;28;20548;-77
2024/01/07 11:18:19;;;;;;;16.35;8.90;;;-4.50;99.90;;;;;;5058320;28;20122;-77
2024/01/07 11:20:46;;;;;;;14.82;7.57;;;-4.60;99.90;;;;;;5079422;28;20044;-77
2024/01/07 11:23:38;;;;;;;15.63;6.10;;;-4.60;99.90;;;;;;5053613;28;20017;-77
2024/01/07 11:26:04;;;;;;;9.57;6.95;;;-4.60;99.90;;;;;;5081697;28;20098;-76
2024/01/07 11:28:52;;;;;;;12.35;7.50;;;-4.50;99.90;;;;;;5072453;28;20032;-77
2024/01/07 11:31:42;;;;;;;13.98;8.57;;;-4.50;99.90;;;;;;5070708;28;20034;-77
2024/01/07 11:34:08;;;;;;;10.38;6.63;;;-4.50;99.90;;;;;;5059088;28;20045;-77
2024/01/07 11:36:38;;;;;;;14.50;7.20;;;-4.40;99.90;;;;;;5041844;28;20021;-77
2024/01/07 11:39:08;;;;;;;15.85;8.50;;;-4.40;99.90;;;;;;5050244;28;20112;-76
2024/01/07 11:41:35;;;;;;;12.05;7.38;;;-4.50;99.90;;;;;;5052893;28;20032;-77
2024/01/07 11:44:02;;;;;;;17.27;10.82;;;-4.40;99.90;;;;;;5064664;28;20120;-78
2024/01/07 11:46:28;;;;;;;16.92;8.52;;;-4.50;99.90;;;;;;5051879;28;20094;-75
2024/01/07 11:48:58;;;;;;;10.10;4.82;;;-4.50;99.90;;;;;;5045601;28;20040;-77
2024/01/07 11:51:31;;;;;;;8.77;4.95;;;-4.60;99.90;;;;;;5066693;28;20040;-76
2024/01/07 11:53:58;;;;;;;8.65;5.65;;;-4.60;99.90;;;;;;5061965;28;20033;-76
2024/01/07 11:56:27;;;;;;;12.75;6.90;;;-4.60;99.90;;;;;;5046398;28;20027;-76
2024/01/07 11:58:53;;;;;;;11.00;5.60;;;-4.60;99.90;;;;;;5054238;28;20068;-76
2024/01/07 12:01:19;;;;;;;14.00;7.60;;;-4.50;99.90;;;;;;5064288;28;20031;-76
2024/01/07 12:03:45;;;;;;;52.85;27.33;;;-4.50;99.90;;;;;;5062162;28;20028;-76
2024/01/07 12:06:13;;;;;;;40.92;27.10;;;-4.40;99.90;;;;;;5047377;28;20020;-76
2024/01/07 12:08:43;;;;;;;20.23;14.90;;;-4.50;99.90;;;;;;5048461;28;20138;-77
2024/01/07 12:11:15;;;;;;;32.63;13.05;;;-4.50;99.90;;;;;;5061467;28;20105;-76
2024/01/07 12:13:41;;;;;;;19.30;9.70;;;-4.50;99.90;;;;;;5060654;28;20077;-77
2024/01/07 12:16:08;;;;;;;16.83;9.02;;;-4.70;99.90;;;;;;5044266;28;20017;-77
2024/01/07 12:18:38;;;;;;;35.35;18.23;;;-4.60;99.90;;;;;;5064632;28;20020;-77
2024/01/07 12:21:04;;;;;;;21.48;9.15;;;-4.60;99.90;;;;;;5047373;28;20009;-77
2024/01/07 12:23:36;;;;;;;17.80;9.65;;;-4.60;99.90;;;;;;5043121;28;20491;-77
2024/01/07 12:26:11;;;;;;;14.93;8.27;;;-4.60;99.90;;;;;;5049594;28;20091;-76
2024/01/07 12:28:38;;;;;;;22.63;10.27;;;-4.60;99.90;;;;;;5060016;28;20032;-77
2024/01/07 12:31:04;;;;;;;9.80;5.03;;;-4.60;99.90;;;;;;5068457;28;20051;-76
2024/01/07 12:33:31;;;;;;;26.13;10.68;;;-4.70;99.90;;;;;;5064336;28;20417;-76
2024/01/07 12:35:57;;;;;;;19.92;11.05;;;-4.60;99.90;;;;;;5083289;28;20036;-76
2024/01/07 12:38:27;;;;;;;23.52;10.93;;;-4.60;99.90;;;;;;5069706;28;20017;-75